sensor_id;sensor_type;location;lat;lon;timestamp;pressure;altitude;pressure_sealevel;temperature;humidity
41102;BME280;26845;50.190;19.178;2022-08-03T00:02:15;98964.05;;;16.61;77.18
41102;BME280;26845;50.190;19.178;2022-08-03T00:04:41;98959.04;;;16.55;77.32
41102;BME280;26845;50.190;19.178;2022-08-03T00:07:06;98958.36;;;16.46;77.42
41102;BME280;26845;50.190;19.178;2022-08-03T00:09:32;98966.08;;;16.43;77.60
41102;BME280;26845;50.190;19.178;2022-08-03T00:11:57;98963.61;;;16.41;77.58
41102;BME280;26845;50.190;19.178;2022-08-03T00:14:23;98961.98;;;16.40;77.58
41102;BME280;26845;50.190;19.178;2022-08-03T00:16:49;98960.48;;;16.36;77.56
41102;BME280;26845;50.190;19.178;2022-08-03T00:19:14;98962.33;;;16.32;77.53
41102;BME280;26845;50.190;19.178;2022-08-03T00:21:40;98961.97;;;16.28;77.62
41102;BME280;26845;50.190;19.178;2022-08-03T00:24:05;98960.12;;;16.26;77.65
41102;BME280;26845;50.190;19.178;2022-08-03T00:26:31;98955.78;;;16.22;77.59
41102;BME280;26845;50.190;19.178;2022-08-03T00:28:56;98952.53;;;16.14;77.54
41102;BME280;26845;50.190;19.178;2022-08-03T00:31:22;98959.18;;;16.09;77.43
41102;BME280;26845;50.190;19.178;2022-08-03T00:33:47;98959.41;;;16.04;77.40
41102;BME280;26845;50.190;19.178;2022-08-03T00:36:13;98962.69;;;16.00;77.46
41102;BME280;26845;50.190;19.178;2022-08-03T00:38:38;98961.73;;;15.96;77.53
41102;BME280;26845;50.190;19.178;2022-08-03T00:41:04;98963.02;;;15.92;77.55
41102;BME280;26845;50.190;19.178;2022-08-03T00:43:29;98959.29;;;15.88;77.65
41102;BME280;26845;50.190;19.178;2022-08-03T00:45:55;98962.42;;;15.81;77.60
41102;BME280;26845;50.190;19.178;2022-08-03T00:48:21;98954.56;;;15.68;77.55
41102;BME280;26845;50.190;19.178;2022-08-03T00:50:47;98962.92;;;15.62;77.87
41102;BME280;26845;50.190;19.178;2022-08-03T00:53:13;98965.84;;;15.59;77.90
41102;BME280;26845;50.190;19.178;2022-08-03T00:55:39;98962.22;;;15.59;78.03
41102;BME280;26845;50.190;19.178;2022-08-03T00:58:06;98962.91;;;15.56;77.92
41102;BME280;26845;50.190;19.178;2022-08-03T01:00:33;98958.94;;;15.57;78.05
41102;BME280;26845;50.190;19.178;2022-08-03T01:03:00;98961.74;;;15.57;77.89
41102;BME280;26845;50.190;19.178;2022-08-03T01:05:27;98957.91;;;15.55;78.13
41102;BME280;26845;50.190;19.178;2022-08-03T01:13:16;98962.23;;;15.65;78.35
41102;BME280;26845;50.190;19.178;2022-08-03T01:15:55;98962.41;;;15.68;78.34
41102;BME280;26845;50.190;19.178;2022-08-03T01:18:24;98963.70;;;15.71;78.40
41102;BME280;26845;50.190;19.178;2022-08-03T01:20:54;98965.63;;;15.64;78.25
41102;BME280;26845;50.190;19.178;2022-08-03T01:26:27;98961.01;;;15.68;78.62
41102;BME280;26845;50.190;19.178;2022-08-03T01:31:58;98969.30;;;15.71;78.55
41102;BME280;26845;50.190;19.178;2022-08-03T01:34:27;98972.11;;;15.71;78.55
41102;BME280;26845;50.190;19.178;2022-08-03T01:36:54;98971.37;;;15.68;78.49
41102;BME280;26845;50.190;19.178;2022-08-03T01:39:21;98968.42;;;15.64;78.54
41102;BME280;26845;50.190;19.178;2022-08-03T01:41:48;98967.72;;;15.61;78.56
41102;BME280;26845;50.190;19.178;2022-08-03T01:44:16;98966.53;;;15.56;78.58
41102;BME280;26845;50.190;19.178;2022-08-03T01:46:42;98964.20;;;15.52;78.60
41102;BME280;26845;50.190;19.178;2022-08-03T01:49:09;98967.11;;;15.49;78.65
41102;BME280;26845;50.190;19.178;2022-08-03T01:51:37;98961.12;;;15.45;78.63
41102;BME280;26845;50.190;19.178;2022-08-03T01:54:04;98964.50;;;15.38;78.56
41102;BME280;26845;50.190;19.178;2022-08-03T01:56:29;98959.11;;;15.33;78.59
41102;BME280;26845;50.190;19.178;2022-08-03T01:58:55;98956.52;;;15.28;78.67
41102;BME280;26845;50.190;19.178;2022-08-03T02:01:23;98954.77;;;15.23;78.70
41102;BME280;26845;50.190;19.178;2022-08-03T02:03:49;98958.84;;;15.20;78.76
41102;BME280;26845;50.190;19.178;2022-08-03T02:06:16;98956.48;;;15.16;78.82
41102;BME280;26845;50.190;19.178;2022-08-03T02:08:44;98962.28;;;15.11;78.76
41102;BME280;26845;50.190;19.178;2022-08-03T02:11:11;98960.64;;;15.03;78.61
41102;BME280;26845;50.190;19.178;2022-08-03T02:13:37;98960.20;;;14.87;78.56
41102;BME280;26845;50.190;19.178;2022-08-03T02:16:04;98959.88;;;14.73;78.67
41102;BME280;26845;50.190;19.178;2022-08-03T02:18:32;98954.35;;;14.65;78.86
41102;BME280;26845;50.190;19.178;2022-08-03T02:21:03;98954.52;;;14.53;78.81
41102;BME280;26845;50.190;19.178;2022-08-03T02:23:28;98955.31;;;14.39;78.96
41102;BME280;26845;50.190;19.178;2022-08-03T02:25:56;98957.26;;;14.32;79.31
41102;BME280;26845;50.190;19.178;2022-08-03T02:28:25;98958.75;;;14.30;79.48
41102;BME280;26845;50.190;19.178;2022-08-03T02:30:52;98955.38;;;14.30;79.56
41102;BME280;26845;50.190;19.178;2022-08-03T02:33:21;98948.38;;;14.30;79.72
41102;BME280;26845;50.190;19.178;2022-08-03T02:35:48;98948.52;;;14.34;79.92
41102;BME280;26845;50.190;19.178;2022-08-03T02:38:15;98952.03;;;14.37;79.88
41102;BME280;26845;50.190;19.178;2022-08-03T02:40:44;98945.72;;;14.34;79.73
41102;BME280;26845;50.190;19.178;2022-08-03T02:43:10;98950.01;;;14.31;79.95
41102;BME280;26845;50.190;19.178;2022-08-03T02:45:43;98959.56;;;14.30;79.98
41102;BME280;26845;50.190;19.178;2022-08-03T02:48:10;98951.98;;;14.31;80.07
41102;BME280;26845;50.190;19.178;2022-08-03T02:50:36;98951.08;;;14.33;80.07
41102;BME280;26845;50.190;19.178;2022-08-03T02:53:02;98952.48;;;14.33;80.18
41102;BME280;26845;50.190;19.178;2022-08-03T02:55:28;98955.50;;;14.34;80.10
41102;BME280;26845;50.190;19.178;2022-08-03T02:57:55;98958.89;;;14.33;80.19
41102;BME280;26845;50.190;19.178;2022-08-03T03:00:22;98962.76;;;14.35;80.26
41102;BME280;26845;50.190;19.178;2022-08-03T03:02:48;98969.06;;;14.38;80.36
41102;BME280;26845;50.190;19.178;2022-08-03T03:05:15;98965.23;;;14.43;80.43
41102;BME280;26845;50.190;19.178;2022-08-03T03:07:41;98971.32;;;14.45;80.36
41102;BME280;26845;50.190;19.178;2022-08-03T03:10:07;98972.13;;;14.45;80.19
41102;BME280;26845;50.190;19.178;2022-08-03T03:12:33;98978.98;;;14.42;80.04
41102;BME280;26845;50.190;19.178;2022-08-03T03:15:01;98976.57;;;14.16;80.03
41102;BME280;26845;50.190;19.178;2022-08-03T03:17:27;98973.75;;;13.87;80.23
41102;BME280;26845;50.190;19.178;2022-08-03T03:19:54;98972.25;;;13.66;80.74
41102;BME280;26845;50.190;19.178;2022-08-03T03:22:20;98968.27;;;13.61;81.11
41102;BME280;26845;50.190;19.178;2022-08-03T03:24:46;98967.68;;;13.61;81.30
41102;BME280;26845;50.190;19.178;2022-08-03T03:27:13;98977.20;;;13.69;81.55
41102;BME280;26845;50.190;19.178;2022-08-03T03:29:39;98975.77;;;13.78;81.58
41102;BME280;26845;50.190;19.178;2022-08-03T03:32:06;98968.58;;;13.83;81.48
41102;BME280;26845;50.190;19.178;2022-08-03T03:34:33;98970.70;;;13.86;81.50
41102;BME280;26845;50.190;19.178;2022-08-03T03:36:59;98974.63;;;13.93;81.75
41102;BME280;26845;50.190;19.178;2022-08-03T03:39:25;98974.58;;;14.02;81.77
41102;BME280;26845;50.190;19.178;2022-08-03T03:41:51;98978.50;;;14.10;81.80
41102;BME280;26845;50.190;19.178;2022-08-03T03:44:16;98976.92;;;14.15;81.83
41102;BME280;26845;50.190;19.178;2022-08-03T03:46:42;98978.78;;;14.17;81.87
41102;BME280;26845;50.190;19.178;2022-08-03T03:49:08;98976.16;;;14.21;81.97
41102;BME280;26845;50.190;19.178;2022-08-03T03:51:34;98973.98;;;14.26;82.02
41102;BME280;26845;50.190;19.178;2022-08-03T03:54:01;98976.56;;;14.31;81.97
41102;BME280;26845;50.190;19.178;2022-08-03T03:56:29;98974.36;;;14.31;81.87
41102;BME280;26845;50.190;19.178;2022-08-03T03:58:55;98977.15;;;14.31;81.84
41102;BME280;26845;50.190;19.178;2022-08-03T04:01:21;98978.23;;;14.32;82.02
41102;BME280;26845;50.190;19.178;2022-08-03T04:03:47;98985.13;;;14.35;82.14
41102;BME280;26845;50.190;19.178;2022-08-03T04:06:13;98989.13;;;14.40;82.18
41102;BME280;26845;50.190;19.178;2022-08-03T04:08:56;98992.88;;;14.44;82.25
41102;BME280;26845;50.190;19.178;2022-08-03T04:11:42;98994.90;;;14.50;82.36
41102;BME280;26845;50.190;19.178;2022-08-03T04:14:11;98990.77;;;14.56;82.58
41102;BME280;26845;50.190;19.178;2022-08-03T04:16:40;98992.47;;;14.63;82.67
41102;BME280;26845;50.190;19.178;2022-08-03T04:19:08;98990.75;;;14.71;82.67
41102;BME280;26845;50.190;19.178;2022-08-03T04:21:36;98994.66;;;14.78;82.62
41102;BME280;26845;50.190;19.178;2022-08-03T04:24:08;98993.19;;;14.87;82.67
41102;BME280;26845;50.190;19.178;2022-08-03T04:26:36;98999.08;;;14.94;82.69
41102;BME280;26845;50.190;19.178;2022-08-03T04:29:03;98999.34;;;15.01;82.62
41102;BME280;26845;50.190;19.178;2022-08-03T04:31:30;99006.72;;;15.06;82.63
41102;BME280;26845;50.190;19.178;2022-08-03T04:33:56;99006.03;;;15.09;82.67
41102;BME280;26845;50.190;19.178;2022-08-03T04:36:25;99009.87;;;15.11;82.70
41102;BME280;26845;50.190;19.178;2022-08-03T04:39:00;99012.24;;;15.15;82.81
41102;BME280;26845;50.190;19.178;2022-08-03T04:41:24;99014.36;;;15.18;82.88
41102;BME280;26845;50.190;19.178;2022-08-03T04:43:52;99010.51;;;15.22;82.88
41102;BME280;26845;50.190;19.178;2022-08-03T04:46:19;99012.66;;;15.25;82.86
41102;BME280;26845;50.190;19.178;2022-08-03T04:48:47;99014.17;;;15.29;82.88
41102;BME280;26845;50.190;19.178;2022-08-03T04:51:13;99020.72;;;15.33;82.98
41102;BME280;26845;50.190;19.178;2022-08-03T04:53:39;99011.40;;;15.35;83.04
41102;BME280;26845;50.190;19.178;2022-08-03T04:56:05;99009.10;;;15.43;83.23
41102;BME280;26845;50.190;19.178;2022-08-03T04:58:31;99014.03;;;15.52;83.57
41102;BME280;26845;50.190;19.178;2022-08-03T05:00:58;99010.77;;;15.57;83.68
41102;BME280;26845;50.190;19.178;2022-08-03T05:03:23;99010.45;;;15.64;83.78
41102;BME280;26845;50.190;19.178;2022-08-03T05:05:50;99012.04;;;15.74;83.83
41102;BME280;26845;50.190;19.178;2022-08-03T05:08:17;99014.05;;;15.86;83.98
41102;BME280;26845;50.190;19.178;2022-08-03T05:10:43;99011.03;;;15.97;84.31
41102;BME280;26845;50.190;19.178;2022-08-03T05:13:08;99010.34;;;16.06;84.35
41102;BME280;26845;50.190;19.178;2022-08-03T05:15:36;99013.74;;;16.18;84.60
41102;BME280;26845;50.190;19.178;2022-08-03T05:18:02;99016.20;;;16.26;84.78
41102;BME280;26845;50.190;19.178;2022-08-03T05:20:27;99015.03;;;16.33;84.76
41102;BME280;26845;50.190;19.178;2022-08-03T05:22:53;99018.90;;;16.40;84.81
41102;BME280;26845;50.190;19.178;2022-08-03T05:25:19;99014.58;;;16.43;84.73
41102;BME280;26845;50.190;19.178;2022-08-03T05:27:44;99017.48;;;16.53;85.17
41102;BME280;26845;50.190;19.178;2022-08-03T05:30:10;99017.59;;;16.69;85.59
41102;BME280;26845;50.190;19.178;2022-08-03T05:32:36;99014.80;;;16.81;85.42
41102;BME280;26845;50.190;19.178;2022-08-03T05:35:02;99010.55;;;16.93;85.61
41102;BME280;26845;50.190;19.178;2022-08-03T05:37:28;99018.16;;;17.05;85.37
41102;BME280;26845;50.190;19.178;2022-08-03T05:39:53;99017.33;;;17.11;85.14
41102;BME280;26845;50.190;19.178;2022-08-03T05:42:19;99020.58;;;17.13;85.11
41102;BME280;26845;50.190;19.178;2022-08-03T05:44:44;99021.39;;;17.19;85.21
41102;BME280;26845;50.190;19.178;2022-08-03T05:47:13;99018.47;;;17.22;85.15
41102;BME280;26845;50.190;19.178;2022-08-03T05:49:38;99022.67;;;17.22;85.01
41102;BME280;26845;50.190;19.178;2022-08-03T05:52:04;99022.80;;;17.19;85.05
41102;BME280;26845;50.190;19.178;2022-08-03T05:54:29;99019.73;;;17.18;84.97
41102;BME280;26845;50.190;19.178;2022-08-03T05:56:55;99019.52;;;17.17;84.78
41102;BME280;26845;50.190;19.178;2022-08-03T05:59:20;99020.55;;;17.19;85.04
41102;BME280;26845;50.190;19.178;2022-08-03T06:01:46;99019.59;;;17.27;85.33
41102;BME280;26845;50.190;19.178;2022-08-03T06:04:12;99021.44;;;17.35;85.59
41102;BME280;26845;50.190;19.178;2022-08-03T06:06:37;99018.95;;;17.46;85.55
41102;BME280;26845;50.190;19.178;2022-08-03T06:09:03;99020.20;;;17.54;85.58
41102;BME280;26845;50.190;19.178;2022-08-03T06:11:28;99024.81;;;17.69;86.01
41102;BME280;26845;50.190;19.178;2022-08-03T06:13:54;99023.02;;;17.83;86.07
41102;BME280;26845;50.190;19.178;2022-08-03T06:16:19;99020.21;;;17.98;85.99
41102;BME280;26845;50.190;19.178;2022-08-03T06:18:45;99019.09;;;18.09;86.14
41102;BME280;26845;50.190;19.178;2022-08-03T06:21:10;99020.27;;;18.24;86.36
41102;BME280;26845;50.190;19.178;2022-08-03T06:23:36;99028.45;;;18.45;86.66
41102;BME280;26845;50.190;19.178;2022-08-03T06:26:01;99024.31;;;18.64;86.51
41102;BME280;26845;50.190;19.178;2022-08-03T06:28:27;99025.63;;;18.77;86.21
41102;BME280;26845;50.190;19.178;2022-08-03T06:30:53;99027.89;;;18.87;85.90
41102;BME280;26845;50.190;19.178;2022-08-03T06:33:18;99027.96;;;18.91;85.45
41102;BME280;26845;50.190;19.178;2022-08-03T06:35:44;99033.74;;;18.98;85.35
41102;BME280;26845;50.190;19.178;2022-08-03T06:38:09;99028.42;;;19.12;85.53
41102;BME280;26845;50.190;19.178;2022-08-03T06:40:35;99031.80;;;19.27;85.43
41102;BME280;26845;50.190;19.178;2022-08-03T06:43:03;99025.27;;;19.43;85.36
41102;BME280;26845;50.190;19.178;2022-08-03T06:45:28;99030.55;;;19.64;85.43
41102;BME280;26845;50.190;19.178;2022-08-03T06:48:00;99034.34;;;19.81;84.91
41102;BME280;26845;50.190;19.178;2022-08-03T06:50:28;99033.11;;;20.02;85.20
41102;BME280;26845;50.190;19.178;2022-08-03T06:52:55;99034.32;;;20.24;84.75
41102;BME280;26845;50.190;19.178;2022-08-03T06:55:22;99032.77;;;20.39;84.76
41102;BME280;26845;50.190;19.178;2022-08-03T06:57:48;99037.32;;;20.57;84.43
41102;BME280;26845;50.190;19.178;2022-08-03T07:00:15;99040.34;;;20.81;84.60
41102;BME280;26845;50.190;19.178;2022-08-03T07:02:42;99043.91;;;20.92;82.89
41102;BME280;26845;50.190;19.178;2022-08-03T07:05:10;99037.30;;;20.94;81.91
41102;BME280;26845;50.190;19.178;2022-08-03T07:07:38;99042.78;;;20.96;82.64
41102;BME280;26845;50.190;19.178;2022-08-03T07:10:08;99033.78;;;21.17;83.50
41102;BME280;26845;50.190;19.178;2022-08-03T07:12:36;99040.42;;;21.42;82.82
41102;BME280;26845;50.190;19.178;2022-08-03T07:15:06;99034.30;;;21.70;82.85
41102;BME280;26845;50.190;19.178;2022-08-03T07:17:33;99026.63;;;21.87;82.18
41102;BME280;26845;50.190;19.178;2022-08-03T07:20:02;99033.06;;;22.05;81.54
41102;BME280;26845;50.190;19.178;2022-08-03T07:22:30;99025.19;;;22.21;81.41
41102;BME280;26845;50.190;19.178;2022-08-03T07:24:57;99028.62;;;22.44;81.40
41102;BME280;26845;50.190;19.178;2022-08-03T07:27:23;99031.84;;;22.67;81.24
41102;BME280;26845;50.190;19.178;2022-08-03T07:29:52;99030.42;;;22.91;80.35
41102;BME280;26845;50.190;19.178;2022-08-03T07:32:18;99028.55;;;23.13;80.37
41102;BME280;26845;50.190;19.178;2022-08-03T07:34:45;99028.48;;;23.37;80.35
41102;BME280;26845;50.190;19.178;2022-08-03T07:37:13;99021.30;;;23.65;80.32
41102;BME280;26845;50.190;19.178;2022-08-03T07:39:40;99016.77;;;23.91;79.88
41102;BME280;26845;50.190;19.178;2022-08-03T07:42:07;99018.44;;;24.14;79.01
41102;BME280;26845;50.190;19.178;2022-08-03T07:44:33;99018.67;;;24.36;79.18
41102;BME280;26845;50.190;19.178;2022-08-03T07:47:00;99016.27;;;24.60;78.61
41102;BME280;26845;50.190;19.178;2022-08-03T07:49:26;99019.69;;;24.81;77.95
41102;BME280;26845;50.190;19.178;2022-08-03T07:51:53;99021.91;;;24.99;77.69
41102;BME280;26845;50.190;19.178;2022-08-03T07:54:38;99023.90;;;25.09;76.83
41102;BME280;26845;50.190;19.178;2022-08-03T07:57:04;99020.02;;;25.29;77.30
41102;BME280;26845;50.190;19.178;2022-08-03T07:59:31;99024.41;;;25.52;76.90
41102;BME280;26845;50.190;19.178;2022-08-03T08:01:59;99022.70;;;25.76;76.36
41102;BME280;26845;50.190;19.178;2022-08-03T08:04:26;99023.59;;;26.02;76.08
41102;BME280;26845;50.190;19.178;2022-08-03T08:06:53;99021.89;;;26.16;75.05
41102;BME280;26845;50.190;19.178;2022-08-03T08:09:19;99020.52;;;26.35;74.21
41102;BME280;26845;50.190;19.178;2022-08-03T08:11:45;99019.05;;;26.42;74.31
41102;BME280;26845;50.190;19.178;2022-08-03T08:14:12;99018.89;;;26.63;73.00
41102;BME280;26845;50.190;19.178;2022-08-03T08:16:43;99023.52;;;26.73;73.04
41102;BME280;26845;50.190;19.178;2022-08-03T08:19:07;99021.84;;;26.75;72.95
41102;BME280;26845;50.190;19.178;2022-08-03T08:21:37;99022.41;;;26.82;71.74
41102;BME280;26845;50.190;19.178;2022-08-03T08:24:04;99026.77;;;26.94;72.03
41102;BME280;26845;50.190;19.178;2022-08-03T08:26:31;99024.67;;;27.01;71.61
41102;BME280;26845;50.190;19.178;2022-08-03T08:28:57;99026.37;;;26.91;67.37
41102;BME280;26845;50.190;19.178;2022-08-03T08:31:24;99024.83;;;26.31;66.35
41102;BME280;26845;50.190;19.178;2022-08-03T08:33:50;99026.58;;;25.67;66.77
41102;BME280;26845;50.190;19.178;2022-08-03T08:36:17;99032.22;;;25.33;69.04
41102;BME280;26845;50.190;19.178;2022-08-03T08:38:43;99028.98;;;25.21;69.48
41102;BME280;26845;50.190;19.178;2022-08-03T08:41:13;99031.42;;;25.19;69.37
41102;BME280;26845;50.190;19.178;2022-08-03T08:43:40;99030.19;;;25.12;68.66
41102;BME280;26845;50.190;19.178;2022-08-03T08:46:11;99032.46;;;25.02;68.63
41102;BME280;26845;50.190;19.178;2022-08-03T08:48:40;99029.41;;;25.05;69.40
41102;BME280;26845;50.190;19.178;2022-08-03T08:51:07;99034.48;;;25.05;68.38
41102;BME280;26845;50.190;19.178;2022-08-03T08:53:34;99031.64;;;25.05;68.49
41102;BME280;26845;50.190;19.178;2022-08-03T08:56:02;99035.50;;;25.18;68.80
41102;BME280;26845;50.190;19.178;2022-08-03T08:58:36;99032.99;;;25.45;69.18
41102;BME280;26845;50.190;19.178;2022-08-03T09:01:03;99030.39;;;25.86;69.49
41102;BME280;26845;50.190;19.178;2022-08-03T09:03:31;99028.08;;;26.30;68.64
41102;BME280;26845;50.190;19.178;2022-08-03T09:05:59;99028.03;;;26.66;68.48
41102;BME280;26845;50.190;19.178;2022-08-03T09:08:27;99022.98;;;27.07;68.45
41102;BME280;26845;50.190;19.178;2022-08-03T09:10:55;99030.07;;;27.49;67.94
41102;BME280;26845;50.190;19.178;2022-08-03T09:13:24;99030.23;;;27.88;66.83
41102;BME280;26845;50.190;19.178;2022-08-03T09:18:43;99026.86;;;27.81;64.27
41102;BME280;26845;50.190;19.178;2022-08-03T09:23:43;99023.94;;;28.15;64.23
41102;BME280;26845;50.190;19.178;2022-08-03T09:26:27;99023.00;;;28.22;61.99
41102;BME280;26845;50.190;19.178;2022-08-03T09:28:56;99020.98;;;28.07;62.18
41102;BME280;26845;50.190;19.178;2022-08-03T09:31:34;99013.69;;;28.18;60.77
41102;BME280;26845;50.190;19.178;2022-08-03T09:34:04;99018.28;;;27.96;59.94
41102;BME280;26845;50.190;19.178;2022-08-03T09:36:40;99020.41;;;27.89;59.93
41102;BME280;26845;50.190;19.178;2022-08-03T09:39:12;99026.55;;;28.18;62.39
41102;BME280;26845;50.190;19.178;2022-08-03T09:41:41;99012.48;;;28.69;61.24
41102;BME280;26845;50.190;19.178;2022-08-03T09:44:12;99014.22;;;29.10;60.67
41102;BME280;26845;50.190;19.178;2022-08-03T09:46:49;99011.86;;;29.57;61.39
41102;BME280;26845;50.190;19.178;2022-08-03T09:49:18;99014.19;;;30.02;59.64
41102;BME280;26845;50.190;19.178;2022-08-03T09:51:44;99009.98;;;30.27;58.90
41102;BME280;26845;50.190;19.178;2022-08-03T09:54:11;99009.81;;;30.50;59.87
41102;BME280;26845;50.190;19.178;2022-08-03T09:56:38;99007.14;;;30.92;59.89
41102;BME280;26845;50.190;19.178;2022-08-03T09:59:06;99001.67;;;31.27;57.96
41102;BME280;26845;50.190;19.178;2022-08-03T10:01:33;99009.73;;;31.32;57.87
41102;BME280;26845;50.190;19.178;2022-08-03T10:04:00;99001.27;;;31.49;56.94
41102;BME280;26845;50.190;19.178;2022-08-03T10:06:27;98997.48;;;31.52;55.91
41102;BME280;26845;50.190;19.178;2022-08-03T10:09:09;98999.70;;;31.40;56.21
41102;BME280;26845;50.190;19.178;2022-08-03T10:11:37;98995.69;;;31.50;55.98
41102;BME280;26845;50.190;19.178;2022-08-03T10:14:06;98993.48;;;31.84;54.65
41102;BME280;26845;50.190;19.178;2022-08-03T10:16:35;98992.91;;;31.97;54.92
41102;BME280;26845;50.190;19.178;2022-08-03T10:19:03;98993.19;;;31.94;54.57
41102;BME280;26845;50.190;19.178;2022-08-03T10:21:32;98992.64;;;32.25;54.79
41102;BME280;26845;50.190;19.178;2022-08-03T10:24:02;98986.13;;;32.55;54.14
41102;BME280;26845;50.190;19.178;2022-08-03T10:26:33;98987.78;;;32.73;52.47
41102;BME280;26845;50.190;19.178;2022-08-03T10:29:05;98989.17;;;32.56;52.58
41102;BME280;26845;50.190;19.178;2022-08-03T10:31:37;98988.23;;;32.72;53.28
41102;BME280;26845;50.190;19.178;2022-08-03T10:34:08;98991.05;;;32.97;52.73
41102;BME280;26845;50.190;19.178;2022-08-03T10:36:36;98984.36;;;33.13;51.70
41102;BME280;26845;50.190;19.178;2022-08-03T10:39:05;98989.69;;;33.19;52.45
41102;BME280;26845;50.190;19.178;2022-08-03T10:41:33;98980.53;;;33.38;51.61
41102;BME280;26845;50.190;19.178;2022-08-03T10:44:06;98977.27;;;33.49;50.78
41102;BME280;26845;50.190;19.178;2022-08-03T10:46:35;98981.72;;;33.63;51.00
41102;BME280;26845;50.190;19.178;2022-08-03T10:49:04;98983.74;;;33.79;50.18
41102;BME280;26845;50.190;19.178;2022-08-03T10:51:31;98981.40;;;33.92;49.70
41102;BME280;26845;50.190;19.178;2022-08-03T10:53:59;98973.12;;;33.72;48.14
41102;BME280;26845;50.190;19.178;2022-08-03T11:02:15;98976.11;;;31.95;48.55
41102;BME280;26845;50.190;19.178;2022-08-03T11:04:43;98975.31;;;31.53;48.82
41102;BME280;26845;50.190;19.178;2022-08-03T11:09:52;98980.16;;;30.81;48.67
41102;BME280;26845;50.190;19.178;2022-08-03T11:12:26;98977.09;;;30.47;48.74
41102;BME280;26845;50.190;19.178;2022-08-03T11:15:06;98980.58;;;30.22;49.26
41102;BME280;26845;50.190;19.178;2022-08-03T11:17:34;98971.13;;;30.14;49.29
41102;BME280;26845;50.190;19.178;2022-08-03T11:20:01;98981.77;;;29.89;49.35
41102;BME280;26845;50.190;19.178;2022-08-03T11:22:46;98970.63;;;29.74;49.27
41102;BME280;26845;50.190;19.178;2022-08-03T11:25:05;98974.83;;;29.58;49.73
41102;BME280;26845;50.190;19.178;2022-08-03T11:27:32;98965.06;;;29.55;49.37
41102;BME280;26845;50.190;19.178;2022-08-03T11:35:20;98969.66;;;29.41;48.78
41102;BME280;26845;50.190;19.178;2022-08-03T11:46:03;98955.23;;;31.15;47.22
41102;BME280;26845;50.190;19.178;2022-08-03T11:51:02;98949.30;;;31.86;47.22
41102;BME280;26845;50.190;19.178;2022-08-03T11:53:31;98941.63;;;32.21;46.95
41102;BME280;26845;50.190;19.178;2022-08-03T11:56:01;98939.19;;;32.32;46.07
41102;BME280;26845;50.190;19.178;2022-08-03T11:58:28;98933.41;;;32.28;43.66
41102;BME280;26845;50.190;19.178;2022-08-03T12:01:04;98940.37;;;31.63;42.37
41102;BME280;26845;50.190;19.178;2022-08-03T12:03:32;98941.51;;;30.94;42.47
41102;BME280;26845;50.190;19.178;2022-08-03T12:06:00;98938.75;;;30.66;44.29
41102;BME280;26845;50.190;19.178;2022-08-03T12:10:58;98938.86;;;30.46;44.13
41102;BME280;26845;50.190;19.178;2022-08-03T12:13:27;98935.63;;;30.28;44.59
41102;BME280;26845;50.190;19.178;2022-08-03T12:16:08;98927.29;;;30.33;44.83
41102;BME280;26845;50.190;19.178;2022-08-03T12:18:35;98925.69;;;30.40;45.65
41102;BME280;26845;50.190;19.178;2022-08-03T12:21:03;98928.16;;;30.79;45.66
41102;BME280;26845;50.190;19.178;2022-08-03T12:23:31;98921.05;;;31.21;44.89
41102;BME280;26845;50.190;19.178;2022-08-03T12:26:02;98918.98;;;31.51;44.64
41102;BME280;26845;50.190;19.178;2022-08-03T12:28:31;98914.64;;;31.72;44.46
41102;BME280;26845;50.190;19.178;2022-08-03T12:31:02;98913.70;;;31.88;43.44
41102;BME280;26845;50.190;19.178;2022-08-03T12:33:31;98919.34;;;31.99;43.39
41102;BME280;26845;50.190;19.178;2022-08-03T12:38:37;98910.02;;;31.95;41.61
41102;BME280;26845;50.190;19.178;2022-08-03T12:41:08;98912.72;;;31.73;42.31
41102;BME280;26845;50.190;19.178;2022-08-03T12:43:50;98919.35;;;30.95;41.41
41102;BME280;26845;50.190;19.178;2022-08-03T12:46:15;98919.32;;;30.24;40.33
41102;BME280;26845;50.190;19.178;2022-08-03T12:51:35;98909.97;;;30.04;41.38
41102;BME280;26845;50.190;19.178;2022-08-03T12:54:00;98904.67;;;30.02;43.07
41102;BME280;26845;50.190;19.178;2022-08-03T12:56:28;98905.15;;;30.50;42.90
41102;BME280;26845;50.190;19.178;2022-08-03T12:58:55;98902.83;;;30.99;43.02
41102;BME280;26845;50.190;19.178;2022-08-03T13:01:22;98907.02;;;31.52;42.29
41102;BME280;26845;50.190;19.178;2022-08-03T13:03:50;98907.73;;;31.56;41.01
41102;BME280;26845;50.190;19.178;2022-08-03T13:06:22;98900.44;;;31.60;41.71
41102;BME280;26845;50.190;19.178;2022-08-03T13:09:03;98900.06;;;32.04;41.39
41102;BME280;26845;50.190;19.178;2022-08-03T13:11:31;98895.17;;;32.22;41.33
41102;BME280;26845;50.190;19.178;2022-08-03T13:13:58;98898.11;;;32.57;41.95
41102;BME280;26845;50.190;19.178;2022-08-03T13:16:24;98897.60;;;32.72;40.95
41102;BME280;26845;50.190;19.178;2022-08-03T13:18:51;98901.56;;;32.87;41.75
41102;BME280;26845;50.190;19.178;2022-08-03T13:21:18;98901.63;;;32.74;40.30
41102;BME280;26845;50.190;19.178;2022-08-03T13:23:45;98897.60;;;32.54;39.54
41102;BME280;26845;50.190;19.178;2022-08-03T13:26:12;98894.34;;;32.35;40.02
41102;BME280;26845;50.190;19.178;2022-08-03T13:28:39;98898.41;;;32.55;40.90
41102;BME280;26845;50.190;19.178;2022-08-03T13:31:06;98893.53;;;32.64;39.80
41102;BME280;26845;50.190;19.178;2022-08-03T13:33:33;98897.81;;;32.60;40.35
41102;BME280;26845;50.190;19.178;2022-08-03T13:36:02;98888.86;;;32.45;40.52
41102;BME280;26845;50.190;19.178;2022-08-03T13:38:29;98892.91;;;32.47;39.74
41102;BME280;26845;50.190;19.178;2022-08-03T13:40:55;98887.52;;;32.41;39.87
41102;BME280;26845;50.190;19.178;2022-08-03T13:43:22;98892.30;;;32.70;40.38